sensor_id;sensor_type;location;lat;lon;timestamp;temperature;humidity
5560;DHT22;2803;47.916;8.074;2023-04-30T00:00:16;14.20;99.90
5560;DHT22;2803;47.916;8.074;2023-04-30T00:02:42;14.20;99.90
5560;DHT22;2803;47.916;8.074;2023-04-30T00:05:09;13.90;99.90
5560;DHT22;2803;47.916;8.074;2023-04-30T00:07:35;13.90;99.90
5560;DHT22;2803;47.916;8.074;2023-04-30T00:10:07;13.60;99.90
5560;DHT22;2803;47.916;8.074;2023-04-30T00:12:35;13.60;99.90
5560;DHT22;2803;47.916;8.074;2023-04-30T00:15:02;13.90;99.90
5560;DHT22;2803;47.916;8.074;2023-04-30T00:17:29;13.50;99.90
5560;DHT22;2803;47.916;8.074;2023-04-30T00:19:55;13.80;99.90
5560;DHT22;2803;47.916;8.074;2023-04-30T00:22:22;13.80;99.90
5560;DHT22;2803;47.916;8.074;2023-04-30T00:24:48;13.90;99.90
5560;DHT22;2803;47.916;8.074;2023-04-30T00:27:15;13.80;99.90
5560;DHT22;2803;47.916;8.074;2023-04-30T00:29:43;13.90;99.90
5560;DHT22;2803;47.916;8.074;2023-04-30T00:32:09;14.00;99.90
5560;DHT22;2803;47.916;8.074;2023-04-30T00:34:36;14.00;99.90
5560;DHT22;2803;47.916;8.074;2023-04-30T00:37:02;14.10;99.90
5560;DHT22;2803;47.916;8.074;2023-04-30T00:39:29;14.00;99.90
5560;DHT22;2803;47.916;8.074;2023-04-30T00:41:56;13.90;99.90
5560;DHT22;2803;47.916;8.074;2023-04-30T00:44:22;14.00;99.90
5560;DHT22;2803;47.916;8.074;2023-04-30T00:46:50;14.00;99.90
5560;DHT22;2803;47.916;8.074;2023-04-30T00:49:17;14.10;99.90
5560;DHT22;2803;47.916;8.074;2023-04-30T00:51:44;14.30;99.90
5560;DHT22;2803;47.916;8.074;2023-04-30T00:54:11;14.20;99.90
5560;DHT22;2803;47.916;8.074;2023-04-30T00:56:38;13.80;99.90
5560;DHT22;2803;47.916;8.074;2023-04-30T00:59:05;14.00;99.90
5560;DHT22;2803;47.916;8.074;2023-04-30T01:01:32;14.00;99.90
5560;DHT22;2803;47.916;8.074;2023-04-30T01:04:00;14.10;99.90
5560;DHT22;2803;47.916;8.074;2023-04-30T01:06:26;14.20;99.90
5560;DHT22;2803;47.916;8.074;2023-04-30T01:08:53;14.20;99.90
5560;DHT22;2803;47.916;8.074;2023-04-30T01:11:27;14.20;99.90
5560;DHT22;2803;47.916;8.074;2023-04-30T01:14:03;13.80;99.90
5560;DHT22;2803;47.916;8.074;2023-04-30T01:16:35;13.90;99.90
5560;DHT22;2803;47.916;8.074;2023-04-30T01:19:09;13.30;99.90
5560;DHT22;2803;47.916;8.074;2023-04-30T01:21:42;12.80;99.90
5560;DHT22;2803;47.916;8.074;2023-04-30T01:24:23;12.90;99.90
5560;DHT22;2803;47.916;8.074;2023-04-30T01:27:03;12.70;99.90
5560;DHT22;2803;47.916;8.074;2023-04-30T01:29:33;12.70;99.90
5560;DHT22;2803;47.916;8.074;2023-04-30T01:32:01;12.90;99.90
5560;DHT22;2803;47.916;8.074;2023-04-30T01:34:28;13.10;99.90
5560;DHT22;2803;47.916;8.074;2023-04-30T01:37:05;12.80;99.90
5560;DHT22;2803;47.916;8.074;2023-04-30T01:39:49;12.70;99.90
5560;DHT22;2803;47.916;8.074;2023-04-30T01:42:20;12.90;99.90
5560;DHT22;2803;47.916;8.074;2023-04-30T01:45:02;13.10;99.90
5560;DHT22;2803;47.916;8.074;2023-04-30T01:47:38;13.30;99.90
5560;DHT22;2803;47.916;8.074;2023-04-30T01:50:16;13.50;99.90
5560;DHT22;2803;47.916;8.074;2023-04-30T01:52:46;13.80;99.90
5560;DHT22;2803;47.916;8.074;2023-04-30T01:55:17;13.90;99.90
5560;DHT22;2803;47.916;8.074;2023-04-30T01:57:51;13.70;99.90
5560;DHT22;2803;47.916;8.074;2023-04-30T02:00:20;13.60;99.90
5560;DHT22;2803;47.916;8.074;2023-04-30T02:02:47;13.80;99.90
5560;DHT22;2803;47.916;8.074;2023-04-30T02:05:13;14.00;99.90
5560;DHT22;2803;47.916;8.074;2023-04-30T02:07:42;14.10;99.90
5560;DHT22;2803;47.916;8.074;2023-04-30T02:10:10;14.10;99.90
5560;DHT22;2803;47.916;8.074;2023-04-30T02:12:37;14.00;99.90
5560;DHT22;2803;47.916;8.074;2023-04-30T02:15:04;14.10;99.90
5560;DHT22;2803;47.916;8.074;2023-04-30T02:17:32;14.00;99.90
5560;DHT22;2803;47.916;8.074;2023-04-30T02:19:59;13.80;99.90
5560;DHT22;2803;47.916;8.074;2023-04-30T02:22:26;13.90;99.90
5560;DHT22;2803;47.916;8.074;2023-04-30T02:24:53;14.00;99.90
5560;DHT22;2803;47.916;8.074;2023-04-30T02:27:20;14.10;99.90
5560;DHT22;2803;47.916;8.074;2023-04-30T02:29:47;14.10;99.90
5560;DHT22;2803;47.916;8.074;2023-04-30T02:32:14;14.20;99.90
5560;DHT22;2803;47.916;8.074;2023-04-30T02:34:42;14.10;99.90
5560;DHT22;2803;47.916;8.074;2023-04-30T02:37:09;14.20;99.90
5560;DHT22;2803;47.916;8.074;2023-04-30T02:39:36;13.80;99.90
5560;DHT22;2803;47.916;8.074;2023-04-30T02:42:02;13.90;99.90
5560;DHT22;2803;47.916;8.074;2023-04-30T02:44:32;13.70;99.90
5560;DHT22;2803;47.916;8.074;2023-04-30T02:46:58;13.70;99.90
5560;DHT22;2803;47.916;8.074;2023-04-30T02:49:25;13.60;99.90
5560;DHT22;2803;47.916;8.074;2023-04-30T02:51:53;13.40;99.90
5560;DHT22;2803;47.916;8.074;2023-04-30T02:54:20;13.10;99.90
5560;DHT22;2803;47.916;8.074;2023-04-30T02:56:46;13.40;99.90
5560;DHT22;2803;47.916;8.074;2023-04-30T02:59:13;13.80;99.90
5560;DHT22;2803;47.916;8.074;2023-04-30T03:01:40;14.10;99.90
5560;DHT22;2803;47.916;8.074;2023-04-30T03:04:06;14.30;99.90
5560;DHT22;2803;47.916;8.074;2023-04-30T03:06:33;14.00;99.90
5560;DHT22;2803;47.916;8.074;2023-04-30T03:09:01;13.90;99.90
5560;DHT22;2803;47.916;8.074;2023-04-30T03:11:28;13.40;99.90
5560;DHT22;2803;47.916;8.074;2023-04-30T03:13:54;13.60;99.90
5560;DHT22;2803;47.916;8.074;2023-04-30T03:16:21;13.80;99.90
5560;DHT22;2803;47.916;8.074;2023-04-30T03:18:48;14.00;99.90
5560;DHT22;2803;47.916;8.074;2023-04-30T03:21:15;14.10;99.90
5560;DHT22;2803;47.916;8.074;2023-04-30T03:23:42;14.00;99.90
5560;DHT22;2803;47.916;8.074;2023-04-30T03:26:10;13.60;99.90
5560;DHT22;2803;47.916;8.074;2023-04-30T03:28:36;13.30;99.90
5560;DHT22;2803;47.916;8.074;2023-04-30T03:31:03;13.60;99.90
5560;DHT22;2803;47.916;8.074;2023-04-30T03:33:30;13.70;99.90
5560;DHT22;2803;47.916;8.074;2023-04-30T03:35:57;14.00;99.90
5560;DHT22;2803;47.916;8.074;2023-04-30T03:38:23;13.40;99.90
5560;DHT22;2803;47.916;8.074;2023-04-30T03:40:50;13.40;99.90
5560;DHT22;2803;47.916;8.074;2023-04-30T03:43:18;13.70;99.90
5560;DHT22;2803;47.916;8.074;2023-04-30T03:45:45;13.80;99.90
5560;DHT22;2803;47.916;8.074;2023-04-30T03:48:12;13.90;99.90
5560;DHT22;2803;47.916;8.074;2023-04-30T03:50:38;14.00;99.90
5560;DHT22;2803;47.916;8.074;2023-04-30T03:53:05;14.10;99.90
5560;DHT22;2803;47.916;8.074;2023-04-30T03:55:32;14.30;99.90
5560;DHT22;2803;47.916;8.074;2023-04-30T03:57:59;14.30;99.90
5560;DHT22;2803;47.916;8.074;2023-04-30T04:00:27;14.40;99.90
5560;DHT22;2803;47.916;8.074;2023-04-30T04:02:53;14.30;99.90
5560;DHT22;2803;47.916;8.074;2023-04-30T04:05:20;14.30;99.90
5560;DHT22;2803;47.916;8.074;2023-04-30T04:07:46;14.30;99.90
5560;DHT22;2803;47.916;8.074;2023-04-30T04:10:13;14.10;99.90
5560;DHT22;2803;47.916;8.074;2023-04-30T04:12:40;14.20;99.90
5560;DHT22;2803;47.916;8.074;2023-04-30T04:15:07;14.20;99.90
5560;DHT22;2803;47.916;8.074;2023-04-30T04:17:35;14.20;99.90
5560;DHT22;2803;47.916;8.074;2023-04-30T04:20:02;14.40;99.90
5560;DHT22;2803;47.916;8.074;2023-04-30T04:22:30;14.40;99.90
5560;DHT22;2803;47.916;8.074;2023-04-30T04:24:57;14.40;99.90
5560;DHT22;2803;47.916;8.074;2023-04-30T04:27:23;14.40;99.90
5560;DHT22;2803;47.916;8.074;2023-04-30T04:29:50;14.40;99.90
5560;DHT22;2803;47.916;8.074;2023-04-30T04:32:17;14.20;99.90
5560;DHT22;2803;47.916;8.074;2023-04-30T04:34:45;14.00;99.90
5560;DHT22;2803;47.916;8.074;2023-04-30T04:37:11;13.60;99.90
5560;DHT22;2803;47.916;8.074;2023-04-30T04:39:38;13.70;99.90
5560;DHT22;2803;47.916;8.074;2023-04-30T04:42:04;13.40;99.90
5560;DHT22;2803;47.916;8.074;2023-04-30T04:44:31;12.90;99.90
5560;DHT22;2803;47.916;8.074;2023-04-30T04:46:58;13.50;99.90
5560;DHT22;2803;47.916;8.074;2023-04-30T04:49:25;13.30;99.90
5560;DHT22;2803;47.916;8.074;2023-04-30T04:51:53;13.40;99.90
5560;DHT22;2803;47.916;8.074;2023-04-30T04:54:19;13.10;99.90
5560;DHT22;2803;47.916;8.074;2023-04-30T04:56:46;12.90;99.90
5560;DHT22;2803;47.916;8.074;2023-04-30T04:59:13;12.50;99.90
5560;DHT22;2803;47.916;8.074;2023-04-30T05:01:40;12.80;99.90
5560;DHT22;2803;47.916;8.074;2023-04-30T05:04:06;13.30;99.90
5560;DHT22;2803;47.916;8.074;2023-04-30T05:06:34;12.70;99.90
5560;DHT22;2803;47.916;8.074;2023-04-30T05:09:02;12.70;99.90
5560;DHT22;2803;47.916;8.074;2023-04-30T05:11:31;12.50;99.90
5560;DHT22;2803;47.916;8.074;2023-04-30T05:13:57;12.10;99.90
5560;DHT22;2803;47.916;8.074;2023-04-30T05:16:24;11.80;99.90
5560;DHT22;2803;47.916;8.074;2023-04-30T05:18:51;12.00;99.90
5560;DHT22;2803;47.916;8.074;2023-04-30T05:21:17;12.50;99.90
5560;DHT22;2803;47.916;8.074;2023-04-30T05:23:44;12.80;99.90
5560;DHT22;2803;47.916;8.074;2023-04-30T05:26:12;13.00;99.90
5560;DHT22;2803;47.916;8.074;2023-04-30T05:28:38;12.50;99.90
5560;DHT22;2803;47.916;8.074;2023-04-30T05:31:05;12.60;99.90
5560;DHT22;2803;47.916;8.074;2023-04-30T05:33:31;12.40;99.90
5560;DHT22;2803;47.916;8.074;2023-04-30T05:35:58;12.30;99.90
5560;DHT22;2803;47.916;8.074;2023-04-30T05:38:24;12.50;99.90
5560;DHT22;2803;47.916;8.074;2023-04-30T05:40:51;12.80;99.90
5560;DHT22;2803;47.916;8.074;2023-04-30T05:43:19;12.80;99.90
5560;DHT22;2803;47.916;8.074;2023-04-30T05:45:47;12.90;99.90
5560;DHT22;2803;47.916;8.074;2023-04-30T05:48:13;12.80;99.90
5560;DHT22;2803;47.916;8.074;2023-04-30T05:50:40;12.50;99.90
5560;DHT22;2803;47.916;8.074;2023-04-30T05:53:06;12.50;99.90
5560;DHT22;2803;47.916;8.074;2023-04-30T05:55:33;12.10;99.90
5560;DHT22;2803;47.916;8.074;2023-04-30T05:58:00;12.30;99.90
5560;DHT22;2803;47.916;8.074;2023-04-30T06:00:28;12.70;99.90
5560;DHT22;2803;47.916;8.074;2023-04-30T06:02:55;12.80;99.90
5560;DHT22;2803;47.916;8.074;2023-04-30T06:05:22;12.50;99.90
5560;DHT22;2803;47.916;8.074;2023-04-30T06:07:48;12.10;99.90
5560;DHT22;2803;47.916;8.074;2023-04-30T06:10:15;12.30;99.90
5560;DHT22;2803;47.916;8.074;2023-04-30T06:12:41;12.30;99.90
5560;DHT22;2803;47.916;8.074;2023-04-30T06:15:08;12.60;99.90
5560;DHT22;2803;47.916;8.074;2023-04-30T06:17:36;12.40;99.90
5560;DHT22;2803;47.916;8.074;2023-04-30T06:20:03;12.40;99.90
5560;DHT22;2803;47.916;8.074;2023-04-30T06:22:31;12.70;99.90
5560;DHT22;2803;47.916;8.074;2023-04-30T06:24:58;13.00;99.90
5560;DHT22;2803;47.916;8.074;2023-04-30T06:27:25;13.20;99.90
5560;DHT22;2803;47.916;8.074;2023-04-30T06:29:53;13.60;99.90
5560;DHT22;2803;47.916;8.074;2023-04-30T06:32:19;13.10;99.90
5560;DHT22;2803;47.916;8.074;2023-04-30T06:34:47;12.40;99.90
5560;DHT22;2803;47.916;8.074;2023-04-30T06:37:14;11.90;99.90
5560;DHT22;2803;47.916;8.074;2023-04-30T06:39:40;12.00;99.90
5560;DHT22;2803;47.916;8.074;2023-04-30T06:42:07;12.30;99.90
5560;DHT22;2803;47.916;8.074;2023-04-30T06:44:33;12.40;99.90
5560;DHT22;2803;47.916;8.074;2023-04-30T06:47:00;12.80;99.90
5560;DHT22;2803;47.916;8.074;2023-04-30T06:49:27;13.10;99.90
5560;DHT22;2803;47.916;8.074;2023-04-30T06:51:54;13.00;99.90
5560;DHT22;2803;47.916;8.074;2023-04-30T06:54:23;13.10;99.90
5560;DHT22;2803;47.916;8.074;2023-04-30T06:56:51;12.60;99.90
5560;DHT22;2803;47.916;8.074;2023-04-30T06:59:18;12.90;99.90
5560;DHT22;2803;47.916;8.074;2023-04-30T07:01:45;12.90;99.90
5560;DHT22;2803;47.916;8.074;2023-04-30T07:04:11;12.50;99.90
5560;DHT22;2803;47.916;8.074;2023-04-30T07:06:38;12.50;99.90
5560;DHT22;2803;47.916;8.074;2023-04-30T07:09:06;12.60;99.90
5560;DHT22;2803;47.916;8.074;2023-04-30T07:11:33;12.80;99.90
5560;DHT22;2803;47.916;8.074;2023-04-30T07:13:59;12.90;99.90
5560;DHT22;2803;47.916;8.074;2023-04-30T07:16:26;12.90;99.90
5560;DHT22;2803;47.916;8.074;2023-04-30T07:18:53;13.00;99.90
5560;DHT22;2803;47.916;8.074;2023-04-30T07:21:20;13.00;99.90
5560;DHT22;2803;47.916;8.074;2023-04-30T07:23:47;13.30;99.90
5560;DHT22;2803;47.916;8.074;2023-04-30T07:26:17;13.30;99.90
5560;DHT22;2803;47.916;8.074;2023-04-30T07:28:45;13.40;99.90
5560;DHT22;2803;47.916;8.074;2023-04-30T07:31:12;13.50;99.90
5560;DHT22;2803;47.916;8.074;2023-04-30T07:33:38;13.80;99.90
5560;DHT22;2803;47.916;8.074;2023-04-30T07:36:05;14.10;99.90
5560;DHT22;2803;47.916;8.074;2023-04-30T07:38:32;13.80;99.90
5560;DHT22;2803;47.916;8.074;2023-04-30T07:40:58;13.20;99.90
5560;DHT22;2803;47.916;8.074;2023-04-30T07:43:27;13.10;99.90
5560;DHT22;2803;47.916;8.074;2023-04-30T07:45:54;13.00;99.90
5560;DHT22;2803;47.916;8.074;2023-04-30T07:48:20;13.20;99.90
5560;DHT22;2803;47.916;8.074;2023-04-30T07:50:48;13.20;99.90
5560;DHT22;2803;47.916;8.074;2023-04-30T07:53:15;13.20;99.90
5560;DHT22;2803;47.916;8.074;2023-04-30T07:55:41;13.50;99.90
5560;DHT22;2803;47.916;8.074;2023-04-30T07:58:08;13.80;99.90
5560;DHT22;2803;47.916;8.074;2023-04-30T08:00:36;13.90;99.90
5560;DHT22;2803;47.916;8.074;2023-04-30T08:03:02;14.10;99.90
5560;DHT22;2803;47.916;8.074;2023-04-30T08:05:29;13.90;99.90
5560;DHT22;2803;47.916;8.074;2023-04-30T08:07:55;14.00;99.90
5560;DHT22;2803;47.916;8.074;2023-04-30T08:10:22;14.20;99.90
5560;DHT22;2803;47.916;8.074;2023-04-30T08:12:49;14.30;99.90
5560;DHT22;2803;47.916;8.074;2023-04-30T08:15:17;14.20;99.90
5560;DHT22;2803;47.916;8.074;2023-04-30T08:17:47;14.30;99.90
5560;DHT22;2803;47.916;8.074;2023-04-30T08:20:14;14.80;99.90
5560;DHT22;2803;47.916;8.074;2023-04-30T08:22:41;14.80;99.90
5560;DHT22;2803;47.916;8.074;2023-04-30T08:25:09;14.60;99.90
5560;DHT22;2803;47.916;8.074;2023-04-30T08:27:36;14.20;99.90
5560;DHT22;2803;47.916;8.074;2023-04-30T08:30:03;14.60;99.90
5560;DHT22;2803;47.916;8.074;2023-04-30T08:32:32;14.40;99.90
5560;DHT22;2803;47.916;8.074;2023-04-30T08:35:01;14.80;99.90
5560;DHT22;2803;47.916;8.074;2023-04-30T08:37:28;14.80;99.90
5560;DHT22;2803;47.916;8.074;2023-04-30T08:39:54;14.40;99.90
5560;DHT22;2803;47.916;8.074;2023-04-30T08:42:24;14.40;99.90
5560;DHT22;2803;47.916;8.074;2023-04-30T08:44:51;14.70;99.90
5560;DHT22;2803;47.916;8.074;2023-04-30T08:47:19;14.70;99.90
5560;DHT22;2803;47.916;8.074;2023-04-30T08:49:47;14.40;99.90
5560;DHT22;2803;47.916;8.074;2023-04-30T08:52:16;14.70;99.90
5560;DHT22;2803;47.916;8.074;2023-04-30T08:54:45;15.20;99.90
5560;DHT22;2803;47.916;8.074;2023-04-30T08:57:13;15.60;99.90
5560;DHT22;2803;47.916;8.074;2023-04-30T08:59:39;15.90;99.90
5560;DHT22;2803;47.916;8.074;2023-04-30T09:02:06;15.90;99.90
5560;DHT22;2803;47.916;8.074;2023-04-30T09:04:34;15.60;99.90
5560;DHT22;2803;47.916;8.074;2023-04-30T09:07:01;15.30;99.90
5560;DHT22;2803;47.916;8.074;2023-04-30T09:09:37;15.50;99.90
5560;DHT22;2803;47.916;8.074;2023-04-30T09:12:13;14.90;99.90
5560;DHT22;2803;47.916;8.074;2023-04-30T09:14:57;15.20;99.90
5560;DHT22;2803;47.916;8.074;2023-04-30T09:17:24;16.00;99.90
5560;DHT22;2803;47.916;8.074;2023-04-30T09:19:51;16.40;99.90
5560;DHT22;2803;47.916;8.074;2023-04-30T09:22:19;16.80;99.90
5560;DHT22;2803;47.916;8.074;2023-04-30T09:24:48;16.00;99.90
5560;DHT22;2803;47.916;8.074;2023-04-30T09:27:16;15.60;99.90
5560;DHT22;2803;47.916;8.074;2023-04-30T09:29:43;16.00;99.90
5560;DHT22;2803;47.916;8.074;2023-04-30T09:32:11;16.00;99.90
5560;DHT22;2803;47.916;8.074;2023-04-30T09:34:37;16.20;99.90
5560;DHT22;2803;47.916;8.074;2023-04-30T09:37:04;16.50;99.90
5560;DHT22;2803;47.916;8.074;2023-04-30T09:39:32;16.70;99.90
5560;DHT22;2803;47.916;8.074;2023-04-30T09:42:08;16.30;99.90
5560;DHT22;2803;47.916;8.074;2023-04-30T09:44:36;16.00;99.90
5560;DHT22;2803;47.916;8.074;2023-04-30T09:47:03;15.80;99.90
5560;DHT22;2803;47.916;8.074;2023-04-30T09:49:30;15.60;99.90
5560;DHT22;2803;47.916;8.074;2023-04-30T09:51:58;16.20;99.90
5560;DHT22;2803;47.916;8.074;2023-04-30T09:54:26;16.40;99.90
5560;DHT22;2803;47.916;8.074;2023-04-30T09:56:57;16.20;99.90
5560;DHT22;2803;47.916;8.074;2023-04-30T09:59:28;16.30;99.90
5560;DHT22;2803;47.916;8.074;2023-04-30T10:01:58;16.10;99.90
5560;DHT22;2803;47.916;8.074;2023-04-30T10:04:26;15.40;99.90
5560;DHT22;2803;47.916;8.074;2023-04-30T10:06:54;15.60;99.90
5560;DHT22;2803;47.916;8.074;2023-04-30T10:09:24;15.90;99.90
5560;DHT22;2803;47.916;8.074;2023-04-30T10:11:52;16.30;99.90
5560;DHT22;2803;47.916;8.074;2023-04-30T10:14:20;16.00;99.90
5560;DHT22;2803;47.916;8.074;2023-04-30T10:16:53;16.00;99.90
5560;DHT22;2803;47.916;8.074;2023-04-30T10:19:22;16.00;99.90
5560;DHT22;2803;47.916;8.074;2023-04-30T10:21:49;16.00;99.90
5560;DHT22;2803;47.916;8.074;2023-04-30T10:24:19;16.40;99.90
5560;DHT22;2803;47.916;8.074;2023-04-30T10:26:46;16.90;99.90
5560;DHT22;2803;47.916;8.074;2023-04-30T10:29:15;16.70;99.90
5560;DHT22;2803;47.916;8.074;2023-04-30T10:31:44;16.40;99.90
5560;DHT22;2803;47.916;8.074;2023-04-30T10:34:18;16.40;99.90
5560;DHT22;2803;47.916;8.074;2023-04-30T10:36:50;16.50;99.90
5560;DHT22;2803;47.916;8.074;2023-04-30T10:39:20;16.70;99.90
5560;DHT22;2803;47.916;8.074;2023-04-30T10:41:48;16.50;99.90
5560;DHT22;2803;47.916;8.074;2023-04-30T10:44:16;16.20;99.90
5560;DHT22;2803;47.916;8.074;2023-04-30T10:46:47;16.10;99.90
5560;DHT22;2803;47.916;8.074;2023-04-30T10:49:15;16.50;99.90
5560;DHT22;2803;47.916;8.074;2023-04-30T10:51:50;16.60;99.90
5560;DHT22;2803;47.916;8.074;2023-04-30T10:54:24;17.00;99.90
5560;DHT22;2803;47.916;8.074;2023-04-30T10:56:51;16.70;99.90
5560;DHT22;2803;47.916;8.074;2023-04-30T10:59:18;16.00;99.90
5560;DHT22;2803;47.916;8.074;2023-04-30T11:02:00;16.50;99.90
5560;DHT22;2803;47.916;8.074;2023-04-30T11:04:28;17.00;99.90
5560;DHT22;2803;47.916;8.074;2023-04-30T11:07:00;17.10;99.90
5560;DHT22;2803;47.916;8.074;2023-04-30T11:09:37;17.50;99.90
5560;DHT22;2803;47.916;8.074;2023-04-30T11:12:09;18.00;99.90
5560;DHT22;2803;47.916;8.074;2023-04-30T11:14:40;17.80;99.90
5560;DHT22;2803;47.916;8.074;2023-04-30T11:17:09;17.20;99.90
5560;DHT22;2803;47.916;8.074;2023-04-30T11:19:44;17.00;99.90
5560;DHT22;2803;47.916;8.074;2023-04-30T11:22:16;16.70;99.90
5560;DHT22;2803;47.916;8.074;2023-04-30T11:24:51;16.40;99.90
5560;DHT22;2803;47.916;8.074;2023-04-30T11:27:20;16.50;99.90
5560;DHT22;2803;47.916;8.074;2023-04-30T11:29:48;16.80;99.90
5560;DHT22;2803;47.916;8.074;2023-04-30T11:32:16;17.00;99.90
5560;DHT22;2803;47.916;8.074;2023-04-30T11:34:45;16.60;99.90
5560;DHT22;2803;47.916;8.074;2023-04-30T11:37:15;16.40;99.90
5560;DHT22;2803;47.916;8.074;2023-04-30T11:39:42;16.30;99.90
5560;DHT22;2803;47.916;8.074;2023-04-30T11:42:09;16.70;99.90
5560;DHT22;2803;47.916;8.074;2023-04-30T11:44:35;17.10;99.90
5560;DHT22;2803;47.916;8.074;2023-04-30T11:47:03;17.90;99.90
5560;DHT22;2803;47.916;8.074;2023-04-30T11:49:31;18.30;99.90
5560;DHT22;2803;47.916;8.074;2023-04-30T11:51:59;18.20;99.90
5560;DHT22;2803;47.916;8.074;2023-04-30T11:54:26;18.50;99.90
5560;DHT22;2803;47.916;8.074;2023-04-30T11:56:52;18.00;99.90
5560;DHT22;2803;47.916;8.074;2023-04-30T11:59:25;18.00;99.90
5560;DHT22;2803;47.916;8.074;2023-04-30T12:01:52;17.80;99.90
5560;DHT22;2803;47.916;8.074;2023-04-30T12:04:19;17.00;99.90
5560;DHT22;2803;47.916;8.074;2023-04-30T12:06:46;16.50;99.90
5560;DHT22;2803;47.916;8.074;2023-04-30T12:09:14;16.80;99.90
5560;DHT22;2803;47.916;8.074;2023-04-30T12:11:40;17.00;99.90
5560;DHT22;2803;47.916;8.074;2023-04-30T12:14:08;17.20;99.90
5560;DHT22;2803;47.916;8.074;2023-04-30T12:16:40;17.40;99.90
5560;DHT22;2803;47.916;8.074;2023-04-30T12:19:08;17.00;99.90
5560;DHT22;2803;47.916;8.074;2023-04-30T12:21:35;17.30;99.90
5560;DHT22;2803;47.916;8.074;2023-04-30T12:24:03;17.30;99.90
5560;DHT22;2803;47.916;8.074;2023-04-30T12:26:39;17.50;99.90
5560;DHT22;2803;47.916;8.074;2023-04-30T12:29:08;17.50;99.90
5560;DHT22;2803;47.916;8.074;2023-04-30T12:31:35;17.50;99.90
5560;DHT22;2803;47.916;8.074;2023-04-30T12:34:03;17.40;99.90
5560;DHT22;2803;47.916;8.074;2023-04-30T12:36:31;17.70;99.90
5560;DHT22;2803;47.916;8.074;2023-04-30T12:39:06;17.50;99.90
5560;DHT22;2803;47.916;8.074;2023-04-30T12:41:38;17.20;99.90
5560;DHT22;2803;47.916;8.074;2023-04-30T12:44:14;17.20;99.90
5560;DHT22;2803;47.916;8.074;2023-04-30T12:46:40;17.10;99.90
5560;DHT22;2803;47.916;8.074;2023-04-30T12:49:07;17.70;99.90
5560;DHT22;2803;47.916;8.074;2023-04-30T12:51:35;17.70;99.90
5560;DHT22;2803;47.916;8.074;2023-04-30T12:54:04;17.40;99.90
5560;DHT22;2803;47.916;8.074;2023-04-30T12:56:31;17.40;99.90
5560;DHT22;2803;47.916;8.074;2023-04-30T12:58:59;17.40;99.90
5560;DHT22;2803;47.916;8.074;2023-04-30T13:01:26;17.70;99.90
5560;DHT22;2803;47.916;8.074;2023-04-30T13:03:52;18.10;99.90
5560;DHT22;2803;47.916;8.074;2023-04-30T13:06:20;18.10;99.90
5560;DHT22;2803;47.916;8.074;2023-04-30T13:08:46;18.20;99.90
5560;DHT22;2803;47.916;8.074;2023-04-30T13:11:13;17.90;99.90
5560;DHT22;2803;47.916;8.074;2023-04-30T13:13:40;18.00;99.90
5560;DHT22;2803;47.916;8.074;2023-04-30T13:16:09;17.70;99.90
5560;DHT22;2803;47.916;8.074;2023-04-30T13:18:35;17.70;99.90
5560;DHT22;2803;47.916;8.074;2023-04-30T13:21:02;17.50;99.90
5560;DHT22;2803;47.916;8.074;2023-04-30T13:23:29;17.30;99.90
5560;DHT22;2803;47.916;8.074;2023-04-30T13:25:55;17.70;99.90
5560;DHT22;2803;47.916;8.074;2023-04-30T13:28:22;17.60;99.90
5560;DHT22;2803;47.916;8.074;2023-04-30T13:30:48;17.90;99.90
5560;DHT22;2803;47.916;8.074;2023-04-30T13:33:16;17.30;99.90
5560;DHT22;2803;47.916;8.074;2023-04-30T13:35:43;17.10;99.90
5560;DHT22;2803;47.916;8.074;2023-04-30T13:38:10;17.00;99.90
5560;DHT22;2803;47.916;8.074;2023-04-30T13:40:37;16.70;99.90
5560;DHT22;2803;47.916;8.074;2023-04-30T13:43:04;17.00;99.90
5560;DHT22;2803;47.916;8.074;2023-04-30T13:45:30;16.70;99.90
5560;DHT22;2803;47.916;8.074;2023-04-30T13:47:57;17.00;99.90
5560;DHT22;2803;47.916;8.074;2023-04-30T13:50:25;17.50;99.90
5560;DHT22;2803;47.916;8.074;2023-04-30T13:52:51;17.40;99.90
5560;DHT22;2803;47.916;8.074;2023-04-30T13:55:18;17.70;99.90
5560;DHT22;2803;47.916;8.074;2023-04-30T13:57:45;17.90;99.90
5560;DHT22;2803;47.916;8.074;2023-04-30T14:00:12;18.00;99.90
5560;DHT22;2803;47.916;8.074;2023-04-30T14:02:40;17.30;99.90
5560;DHT22;2803;47.916;8.074;2023-04-30T14:05:08;17.10;99.90
5560;DHT22;2803;47.916;8.074;2023-04-30T14:07:36;17.30;99.90
5560;DHT22;2803;47.916;8.074;2023-04-30T14:10:03;17.00;99.90
5560;DHT22;2803;47.916;8.074;2023-04-30T14:12:30;16.70;99.90
5560;DHT22;2803;47.916;8.074;2023-04-30T14:14:56;16.70;99.90
5560;DHT22;2803;47.916;8.074;2023-04-30T14:17:23;17.20;99.90
5560;DHT22;2803;47.916;8.074;2023-04-30T14:19:51;17.20;99.90
5560;DHT22;2803;47.916;8.074;2023-04-30T14:22:17;17.20;99.90
5560;DHT22;2803;47.916;8.074;2023-04-30T14:24:45;16.80;99.90
5560;DHT22;2803;47.916;8.074;2023-04-30T14:27:12;16.90;99.90
5560;DHT22;2803;47.916;8.074;2023-04-30T14:29:39;17.60;99.90
5560;DHT22;2803;47.916;8.074;2023-04-30T14:32:06;17.00;99.90
5560;DHT22;2803;47.916;8.074;2023-04-30T14:34:33;17.10;99.90
5560;DHT22;2803;47.916;8.074;2023-04-30T14:37:01;16.90;99.90
5560;DHT22;2803;47.916;8.074;2023-04-30T14:39:28;17.10;99.90
5560;DHT22;2803;47.916;8.074;2023-04-30T14:41:56;16.60;99.90
5560;DHT22;2803;47.916;8.074;2023-04-30T14:44:22;16.70;99.90
5560;DHT22;2803;47.916;8.074;2023-04-30T14:46:50;17.00;99.90
5560;DHT22;2803;47.916;8.074;2023-04-30T14:49:16;17.30;99.90
5560;DHT22;2803;47.916;8.074;2023-04-30T14:51:43;17.70;99.90
5560;DHT22;2803;47.916;8.074;2023-04-30T14:54:09;17.60;99.90
5560;DHT22;2803;47.916;8.074;2023-04-30T14:56:36;17.50;99.90
5560;DHT22;2803;47.916;8.074;2023-04-30T14:59:05;17.50;99.90
5560;DHT22;2803;47.916;8.074;2023-04-30T15:01:32;17.20;99.90
5560;DHT22;2803;47.916;8.074;2023-04-30T15:03:58;17.70;99.90
5560;DHT22;2803;47.916;8.074;2023-04-30T15:06:26;17.80;99.90
5560;DHT22;2803;47.916;8.074;2023-04-30T15:08:53;17.40;99.90
5560;DHT22;2803;47.916;8.074;2023-04-30T15:11:20;17.80;99.90
5560;DHT22;2803;47.916;8.074;2023-04-30T15:13:46;18.10;99.90
5560;DHT22;2803;47.916;8.074;2023-04-30T15:16:14;18.30;99.90
5560;DHT22;2803;47.916;8.074;2023-04-30T15:18:42;17.80;99.90
5560;DHT22;2803;47.916;8.074;2023-04-30T15:21:08;17.60;99.90
5560;DHT22;2803;47.916;8.074;2023-04-30T15:23:35;18.00;99.90
5560;DHT22;2803;47.916;8.074;2023-04-30T15:26:02;17.40;99.90
5560;DHT22;2803;47.916;8.074;2023-04-30T15:28:30;16.70;99.90
5560;DHT22;2803;47.916;8.074;2023-04-30T15:30:59;16.70;99.90
5560;DHT22;2803;47.916;8.074;2023-04-30T15:33:27;16.90;99.90
5560;DHT22;2803;47.916;8.074;2023-04-30T15:35:55;17.40;99.90
5560;DHT22;2803;47.916;8.074;2023-04-30T15:38:22;17.70;99.90
5560;DHT22;2803;47.916;8.074;2023-04-30T15:40:49;17.70;99.90
5560;DHT22;2803;47.916;8.074;2023-04-30T15:43:16;17.60;99.90
5560;DHT22;2803;47.916;8.074;2023-04-30T15:45:43;17.30;99.90
5560;DHT22;2803;47.916;8.074;2023-04-30T15:48:12;17.10;99.90
5560;DHT22;2803;47.916;8.074;2023-04-30T15:50:40;17.20;99.90
5560;DHT22;2803;47.916;8.074;2023-04-30T15:53:07;17.00;99.90
5560;DHT22;2803;47.916;8.074;2023-04-30T15:55:34;17.30;99.90
5560;DHT22;2803;47.916;8.074;2023-04-30T15:58:01;17.30;99.90
5560;DHT22;2803;47.916;8.074;2023-04-30T16:00:28;17.10;99.90
5560;DHT22;2803;47.916;8.074;2023-04-30T16:02:55;17.00;99.90
5560;DHT22;2803;47.916;8.074;2023-04-30T16:05:22;17.00;99.90